createdAt,value
2022-09-02T00:02:12.908Z,9.80
2022-09-02T00:05:01.004Z,10.02
2022-09-02T00:07:42.391Z,10.25
2022-09-02T00:10:29.106Z,11.50
2022-09-02T00:13:12.224Z,13.75
2022-09-02T00:16:02.108Z,8.60
2022-09-02T00:18:45.752Z,8.55
2022-09-02T00:21:36.147Z,7.93
2022-09-02T00:24:16.970Z,9.32
2022-09-02T00:27:04.191Z,10.38
2022-09-02T00:29:47.641Z,10.95
2022-09-02T00:32:36.713Z,8.90
2022-09-02T00:35:20.027Z,8.82
2022-09-02T00:38:08.217Z,11.68
2022-09-02T00:40:57.410Z,9.02
2022-09-02T00:43:54.427Z,10.00
2022-09-02T00:46:37.892Z,12.88
2022-09-02T00:49:32.023Z,9.48
2022-09-02T00:52:20.315Z,15.10
2022-09-02T00:55:14.506Z,9.50
2022-09-02T00:58:09.322Z,13.90
2022-09-02T01:01:01.106Z,9.60
2022-09-02T01:03:41.953Z,9.82
2022-09-02T01:06:32.914Z,13.57
2022-09-02T01:09:19.189Z,12.85
2022-09-02T01:12:07.197Z,15.02
2022-09-02T01:14:48.005Z,14.23
2022-09-02T01:17:36.502Z,11.30
2022-09-02T01:20:21.292Z,13.88
2022-09-02T01:23:12.038Z,12.18
2022-09-02T01:25:54.920Z,13.55
2022-09-02T01:28:44.124Z,14.52
2022-09-02T01:31:25.188Z,14.35
2022-09-02T01:34:12.024Z,13.48
2022-09-02T01:37:07.428Z,16.92
2022-09-02T01:39:57.280Z,13.40
2022-09-02T01:42:39.340Z,13.93
2022-09-02T01:45:27.939Z,11.13
2022-09-02T01:48:11.404Z,12.52
2022-09-02T01:51:06.610Z,12.82
2022-09-02T01:53:49.355Z,14.15
2022-09-02T01:56:36.079Z,13.48
2022-09-02T01:59:18.362Z,14.00
2022-09-02T02:02:08.454Z,15.35
2022-09-02T02:04:50.243Z,12.90
2022-09-02T02:07:38.139Z,14.02
2022-09-02T02:10:22.346Z,12.77
2022-09-02T02:13:11.037Z,13.25
2022-09-02T02:15:53.167Z,13.98
2022-09-02T02:18:40.046Z,11.05
2022-09-02T02:21:21.474Z,15.25
2022-09-02T02:24:12.572Z,13.35
2022-09-02T02:26:53.823Z,16.13
2022-09-02T02:29:43.077Z,13.38
2022-09-02T02:32:30.963Z,14.15
2022-09-02T02:35:19.356Z,17.00
2022-09-02T02:38:14.331Z,12.80
2022-09-02T02:41:06.622Z,14.13
2022-09-02T02:43:47.841Z,13.10
2022-09-02T02:46:36.939Z,14.77
2022-09-02T02:49:19.459Z,15.65
2022-09-02T02:52:06.097Z,16.80
2022-09-02T02:54:49.223Z,14.85
2022-09-02T02:57:39.094Z,14.13
2022-09-02T03:00:28.186Z,13.50
2022-09-02T03:03:22.655Z,18.80
2022-09-02T03:06:05.450Z,13.50
2022-09-02T03:08:53.584Z,16.55
2022-09-02T03:11:35.007Z,17.42
2022-09-02T03:14:26.741Z,14.98
2022-09-02T03:17:08.923Z,12.43
2022-09-02T03:19:59.428Z,19.10
2022-09-02T03:22:48.672Z,19.35
2022-09-02T03:25:38.109Z,14.73
2022-09-02T03:28:40.328Z,14.40
2022-09-02T03:31:30.162Z,16.58
2022-09-02T03:34:14.031Z,16.13
2022-09-02T03:37:10.011Z,15.98
2022-09-02T03:39:59.144Z,16.05
2022-09-02T03:42:41.143Z,16.08
2022-09-02T03:45:31.263Z,15.95
2022-09-02T03:48:13.116Z,15.13
2022-09-02T03:51:01.036Z,17.13
2022-09-02T03:53:45.511Z,17.20
2022-09-02T03:56:32.605Z,17.00
2022-09-02T03:59:14.130Z,19.98
2022-09-02T04:02:03.689Z,21.25
2022-09-02T04:04:46.559Z,19.33
2022-09-02T04:07:34.323Z,18.92
2022-09-02T04:10:17.136Z,21.33
2022-09-02T04:13:06.671Z,18.38
2022-09-02T04:15:50.368Z,15.90
2022-09-02T04:18:39.836Z,16.70
2022-09-02T04:21:21.848Z,19.23
2022-09-02T04:24:11.078Z,19.92
2022-09-02T04:26:55.175Z,23.05
2022-09-02T04:29:43.018Z,17.45
2022-09-02T04:32:24.234Z,19.75
2022-09-02T04:35:13.143Z,23.83
2022-09-02T04:38:03.117Z,22.52
2022-09-02T04:40:49.995Z,22.58
2022-09-02T04:43:39.171Z,21.30
2022-09-02T04:46:28.035Z,22.15
2022-09-02T04:49:21.642Z,20.73
2022-09-02T04:52:09.777Z,20.33
2022-09-02T04:54:58.191Z,19.80
2022-09-02T04:57:41.048Z,21.02
2022-09-02T05:00:29.253Z,21.35
2022-09-02T05:03:14.163Z,21.70
2022-09-02T05:06:12.745Z,21.13
2022-09-02T05:08:55.475Z,21.98
2022-09-02T05:11:47.319Z,25.88
2022-09-02T05:14:32.072Z,40.53
2022-09-02T05:17:22.267Z,26.95
2022-09-02T05:20:04.051Z,25.63
2022-09-02T05:22:53.248Z,24.52
2022-09-02T05:25:35.087Z,23.85
2022-09-02T05:28:25.043Z,22.27
2022-09-02T05:31:17.484Z,20.85
2022-09-02T05:34:06.488Z,21.17
2022-09-02T05:36:54.906Z,25.13
2022-09-02T05:39:38.195Z,22.05
2022-09-02T05:42:29.497Z,21.88
2022-09-02T05:45:11.201Z,23.38
2022-09-02T05:51:08.212Z,23.75
2022-09-02T05:54:00.563Z,23.15
2022-09-02T05:56:44.862Z,22.40
2022-09-02T05:59:39.081Z,22.48
2022-09-02T06:02:25.418Z,20.23
2022-09-02T06:05:13.768Z,25.02
2022-09-02T06:08:01.384Z,24.98
2022-09-02T06:10:51.105Z,23.08
2022-09-02T06:13:42.295Z,20.83
2022-09-02T06:16:31.500Z,23.88
2022-09-02T06:19:20.397Z,22.02
2022-09-02T06:22:11.415Z,22.35
2022-09-02T06:24:55.004Z,23.00
2022-09-02T06:27:44.215Z,21.88
2022-09-02T06:30:26.419Z,23.48
2022-09-02T06:33:15.944Z,19.63
2022-09-02T06:35:58.911Z,21.42
2022-09-02T06:42:08.212Z,23.75
2022-09-02T06:48:03.575Z,25.30
2022-09-02T06:50:54.149Z,23.83
2022-09-02T06:53:42.238Z,21.23
2022-09-02T06:56:24.891Z,22.90
2022-09-02T06:59:17.705Z,22.35
2022-09-02T07:02:03.780Z,27.38
2022-09-02T07:05:18.629Z,24.67
2022-09-02T07:08:03.819Z,24.10
2022-09-02T07:10:51.281Z,21.65
2022-09-02T07:13:33.211Z,18.77
2022-09-02T07:16:26.843Z,21.00
2022-09-02T07:19:16.162Z,25.60
2022-09-02T07:22:07.495Z,20.73
2022-09-02T07:24:50.570Z,23.40
2022-09-02T07:27:39.260Z,24.08
2022-09-02T07:30:21.633Z,21.52
2022-09-02T07:33:14.531Z,24.85
2022-09-02T07:36:04.000Z,24.40
2022-09-02T07:38:53.739Z,30.08
2022-09-02T07:41:37.463Z,26.73
2022-09-02T07:44:25.326Z,26.35
2022-09-02T07:47:08.542Z,26.70
2022-09-02T07:50:19.172Z,26.20
2022-09-02T07:53:06.065Z,22.20
2022-09-02T07:55:56.466Z,23.45
2022-09-02T07:58:41.380Z,25.00
2022-09-02T08:01:28.444Z,23.13
2022-09-02T08:04:09.591Z,21.67
2022-09-02T08:06:58.269Z,23.85
2022-09-02T08:09:39.948Z,20.63
2022-09-02T08:12:28.199Z,21.02
2022-09-02T08:15:11.195Z,21.90
2022-09-02T08:18:00.315Z,23.05
2022-09-02T08:20:42.605Z,20.77
2022-09-02T08:23:37.246Z,22.95
2022-09-02T08:26:18.221Z,24.40
2022-09-02T08:29:07.262Z,20.75
2022-09-02T08:31:50.832Z,21.70
2022-09-02T08:34:42.301Z,18.63
2022-09-02T08:37:38.544Z,23.10
2022-09-02T08:40:31.482Z,24.00
2022-09-02T08:43:32.179Z,22.67
2022-09-02T08:46:22.138Z,21.63
2022-09-02T08:49:26.334Z,23.20
2022-09-02T08:52:17.734Z,27.48
2022-09-02T08:55:03.212Z,22.55
2022-09-02T08:57:52.462Z,16.90
2022-09-02T09:00:40.261Z,15.45
2022-09-02T09:03:51.566Z,18.05
2022-09-02T09:06:41.005Z,15.32
2022-09-02T09:09:50.360Z,15.95
2022-09-02T09:12:51.245Z,15.18
2022-09-02T09:15:45.316Z,14.43
2022-09-02T09:18:35.285Z,14.23
2022-09-02T09:24:14.229Z,17.55
2022-09-02T09:27:04.333Z,12.82
2022-09-02T09:29:46.799Z,14.75
2022-09-02T09:32:44.424Z,16.00
2022-09-02T09:35:29.084Z,16.65
2022-09-02T09:38:20.318Z,13.50
2022-09-02T09:41:30.303Z,15.27
2022-09-02T09:44:19.109Z,17.50
2022-09-02T09:47:17.888Z,17.27
2022-09-02T09:50:22.395Z,18.13
2022-09-02T09:53:22.328Z,18.92
2022-09-02T09:56:29.467Z,15.55
2022-09-02T09:59:14.714Z,17.85
2022-09-02T10:02:02.386Z,18.33
2022-09-02T10:04:45.718Z,14.75
2022-09-02T10:07:47.420Z,16.00
2022-09-02T10:10:31.785Z,19.25
2022-09-02T10:13:31.387Z,13.98
2022-09-02T10:16:54.381Z,21.23
2022-09-02T10:19:51.349Z,15.55
2022-09-02T10:22:58.802Z,15.40
2022-09-02T10:26:05.423Z,18.33
2022-09-02T10:28:53.304Z,14.70
2022-09-02T10:31:59.344Z,15.23
2022-09-02T10:35:01.635Z,14.88
2022-09-02T10:38:19.351Z,13.60
2022-09-02T10:41:07.352Z,15.38
2022-09-02T10:44:26.182Z,16.60
2022-09-02T10:47:11.644Z,11.30
2022-09-02T10:50:23.821Z,11.75
2022-09-02T10:53:09.368Z,14.20
2022-09-02T10:56:10.965Z,11.32
2022-09-02T10:59:05.259Z,10.90
2022-09-02T11:02:07.434Z,11.57
2022-09-02T11:04:58.622Z,15.65
2022-09-02T11:08:28.403Z,9.52
2022-09-02T11:11:29.020Z,11.10
2022-09-02T11:14:35.270Z,15.70
2022-09-02T11:17:39.503Z,11.40
2022-09-02T11:23:47.679Z,10.93
2022-09-02T11:26:46.424Z,11.38
2022-09-02T11:29:38.767Z,9.52
2022-09-02T11:32:37.305Z,10.25
2022-09-02T11:35:30.302Z,10.30
2022-09-02T11:38:31.317Z,11.05
2022-09-02T11:41:40.874Z,11.98
2022-09-02T11:44:52.262Z,11.52
2022-09-02T11:48:00.714Z,11.57
2022-09-02T11:51:05.388Z,12.40
2022-09-02T11:53:56.176Z,11.82
2022-09-02T11:57:06.196Z,10.23
2022-09-02T11:59:59.347Z,16.88
2022-09-02T12:02:56.728Z,13.13
2022-09-02T12:05:44.526Z,12.00
2022-09-02T12:08:42.247Z,8.73
2022-09-02T12:11:58.580Z,12.23
2022-09-02T12:14:39.441Z,10.73
2022-09-02T12:17:58.301Z,16.23
2022-09-02T12:21:22.970Z,13.57
2022-09-02T12:24:18.327Z,9.52
2022-09-02T12:27:00.802Z,11.73
2022-09-02T12:29:52.134Z,11.00
2022-09-02T12:32:53.725Z,10.75
2022-09-02T12:35:56.325Z,8.38
2022-09-02T12:38:48.448Z,11.40
2022-09-02T12:41:34.338Z,11.23
2022-09-02T12:44:37.067Z,14.48
2022-09-02T12:47:28.337Z,9.10
2022-09-02T12:50:26.741Z,10.43
2022-09-02T12:53:44.441Z,9.35
2022-09-02T12:56:34.737Z,10.65
2022-09-02T12:59:16.217Z,10.82
2022-09-02T13:02:28.165Z,8.68
2022-09-02T13:05:18.732Z,13.13
2022-09-02T13:08:26.410Z,12.50
2022-09-02T13:11:48.630Z,12.48
2022-09-02T13:14:55.511Z,14.13
2022-09-02T13:18:08.640Z,11.30
2022-09-02T13:21:29.888Z,12.40
2022-09-02T13:24:31.207Z,9.68
2022-09-02T13:27:57.517Z,8.95
2022-09-02T13:30:38.455Z,9.13
2022-09-02T13:33:28.090Z,11.45
2022-09-02T13:36:48.144Z,10.27
2022-09-02T13:39:36.489Z,8.80
2022-09-02T13:42:24.370Z,8.20
2022-09-02T13:45:22.501Z,8.07
2022-09-02T13:48:13.359Z,10.70
2022-09-02T13:51:05.545Z,11.07
2022-09-02T13:54:18.861Z,6.93
2022-09-02T13:56:57.536Z,6.03
2022-09-02T13:59:56.990Z,6.40
2022-09-02T14:02:58.200Z,3.05
2022-09-02T14:05:48.503Z,4.50
2022-09-02T14:08:39.344Z,6.40
2022-09-02T14:11:24.240Z,2.95
2022-09-02T14:14:12.498Z,3.83
2022-09-02T14:16:53.587Z,1.52
2022-09-02T14:19:42.064Z,2.88
2022-09-02T14:25:46.497Z,3.85
2022-09-02T14:28:34.470Z,3.35
2022-09-02T14:31:37.962Z,3.33
2022-09-02T14:34:44.856Z,2.38
2022-09-02T14:37:41.397Z,1.13
2022-09-02T14:40:41.591Z,2.13
2022-09-02T14:43:25.066Z,1.60
2022-09-02T14:46:24.483Z,2.47
2022-09-02T14:49:12.579Z,2.13
2022-09-02T14:52:17.407Z,3.25
2022-09-02T14:55:06.460Z,3.42
2022-09-02T14:57:55.538Z,3.40
2022-09-02T15:00:39.308Z,3.17
2022-09-02T15:03:27.862Z,1.75
2022-09-02T15:06:13.091Z,3.67
2022-09-02T15:09:04.381Z,3.45
2022-09-02T15:11:49.607Z,5.35
2022-09-02T15:14:36.809Z,3.78
2022-09-02T15:17:23.113Z,3.58
2022-09-02T15:20:14.220Z,3.78
2022-09-02T15:22:55.558Z,3.20
2022-09-02T15:25:43.830Z,3.28
2022-09-02T15:28:24.608Z,3.95
2022-09-02T15:31:14.060Z,4.30
2022-09-02T15:33:59.084Z,2.15
2022-09-02T15:36:45.569Z,3.08
2022-09-02T15:39:37.144Z,3.03
2022-09-02T15:42:18.831Z,3.90
2022-09-02T15:45:09.062Z,3.90
2022-09-02T15:47:51.258Z,3.72
2022-09-02T15:50:40.595Z,3.45
2022-09-02T15:53:22.587Z,2.35
2022-09-02T15:56:29.574Z,5.72
2022-09-02T15:59:16.799Z,2.10
2022-09-02T16:02:05.078Z,2.53
2022-09-02T16:04:45.566Z,1.70
2022-09-02T16:07:33.855Z,3.08
2022-09-02T16:10:15.493Z,3.45
2022-09-02T16:13:03.464Z,2.92
2022-09-02T16:15:46.905Z,3.42
2022-09-02T16:18:36.590Z,3.80
2022-09-02T16:21:19.589Z,2.35
2022-09-02T16:24:08.638Z,3.03
2022-09-02T16:26:51.498Z,2.63
2022-09-02T16:29:41.807Z,3.85
2022-09-02T16:32:25.636Z,6.57
2022-09-02T16:35:15.735Z,3.47
2022-09-02T16:38:13.229Z,1.65
2022-09-02T16:41:04.589Z,2.33
2022-09-02T16:43:45.594Z,1.83
2022-09-02T16:46:35.933Z,2.53
2022-09-02T16:49:20.513Z,3.55
2022-09-02T16:52:08.609Z,3.13
2022-09-02T16:54:50.901Z,4.65
2022-09-02T16:57:37.600Z,3.90
2022-09-02T17:00:21.016Z,2.22
2022-09-02T17:03:10.861Z,4.10
2022-09-02T17:05:54.955Z,3.42
2022-09-02T17:08:43.282Z,2.58
2022-09-02T17:11:28.596Z,7.13
2022-09-02T17:14:18.751Z,3.00
2022-09-02T17:17:00.624Z,2.70
2022-09-02T17:19:49.326Z,3.80
2022-09-02T17:22:30.578Z,1.67
2022-09-02T17:25:21.692Z,2.15
2022-09-02T17:28:02.674Z,2.60
2022-09-02T17:30:50.184Z,1.73
2022-09-02T17:33:32.161Z,2.80
2022-09-02T17:36:22.650Z,1.88
2022-09-02T17:39:20.582Z,2.85
2022-09-02T17:42:08.281Z,3.45
2022-09-02T17:44:49.553Z,2.15
2022-09-02T17:47:38.623Z,2.35
2022-09-02T17:50:21.271Z,1.92
2022-09-02T17:53:11.191Z,3.22
2022-09-02T17:55:54.186Z,1.83
2022-09-02T17:58:56.672Z,5.10
2022-09-02T18:01:40.537Z,4.88
2022-09-02T18:04:39.051Z,2.97
2022-09-02T18:07:45.178Z,3.17
2022-09-02T18:10:31.750Z,3.15
2022-09-02T18:13:26.535Z,2.85
2022-09-02T18:16:23.203Z,3.50
2022-09-02T18:19:14.982Z,3.67
2022-09-02T18:22:35.951Z,1.63
2022-09-02T18:25:22.963Z,1.13
2022-09-02T18:28:26.306Z,1.67
2022-09-02T18:31:13.571Z,4.00
2022-09-02T18:34:28.361Z,1.73
2022-09-02T18:37:23.111Z,2.20
2022-09-02T18:40:37.706Z,2.15
2022-09-02T18:44:10.188Z,2.53
2022-09-02T18:47:21.698Z,3.55
2022-09-02T18:50:06.346Z,3.83
2022-09-02T18:52:56.115Z,3.05
2022-09-02T18:55:42.685Z,3.05
2022-09-02T18:58:43.755Z,4.28
2022-09-02T19:01:37.341Z,4.18
2022-09-02T19:04:29.607Z,5.65
2022-09-02T19:07:31.768Z,4.60
2022-09-02T19:10:19.711Z,2.42
2022-09-02T19:13:03.944Z,3.15
2022-09-02T19:15:51.943Z,2.40
2022-09-02T19:18:36.585Z,2.67
2022-09-02T19:21:35.675Z,3.65
2022-09-02T19:24:40.576Z,4.68
2022-09-02T19:27:31.650Z,2.55
2022-09-02T19:30:29.353Z,2.13
2022-09-02T19:36:00.606Z,3.97
2022-09-02T19:38:48.268Z,2.67
2022-09-02T19:41:32.624Z,4.95
2022-09-02T19:44:21.453Z,8.30
2022-09-02T19:47:44.497Z,18.40
2022-09-02T19:50:14.021Z,26.48
2022-09-02T19:52:56.630Z,35.17
2022-09-02T19:55:45.147Z,32.13
2022-09-02T19:58:25.649Z,35.92
2022-09-02T20:01:14.562Z,33.85
2022-09-02T20:03:56.679Z,18.77
2022-09-02T20:06:47.717Z,14.43
2022-09-02T20:09:29.105Z,11.23
2022-09-02T20:12:18.116Z,10.63
2022-09-02T20:14:59.016Z,8.27
2022-09-02T20:17:47.771Z,6.75
2022-09-02T20:20:31.391Z,8.55
2022-09-02T20:23:22.655Z,7.40
2022-09-02T20:26:43.972Z,3.78
2022-09-02T20:29:31.731Z,5.97
2022-09-02T20:32:38.631Z,3.50
2022-09-02T20:36:00.040Z,3.28
2022-09-02T20:39:09.614Z,3.50
2022-09-02T20:42:12.727Z,3.42
2022-09-02T20:45:13.605Z,4.10
2022-09-02T20:48:25.359Z,4.75
2022-09-02T20:51:20.016Z,4.68
2022-09-02T20:54:24.267Z,4.28
2022-09-02T20:57:22.633Z,4.05
2022-09-02T21:00:20.602Z,2.58
2022-09-02T21:03:18.393Z,4.25
2022-09-02T21:06:03.783Z,3.88
2022-09-02T21:09:19.652Z,3.88
2022-09-02T21:12:24.385Z,3.90
2022-09-02T21:15:13.838Z,3.22
2022-09-02T21:18:18.747Z,2.63
2022-09-02T21:21:08.640Z,2.78
2022-09-02T21:24:04.679Z,2.50
2022-09-02T21:27:01.807Z,3.70
2022-09-02T21:29:59.030Z,3.08
2022-09-02T21:33:00.899Z,5.30
2022-09-02T21:35:51.539Z,4.65
2022-09-02T21:38:54.668Z,3.22
2022-09-02T21:41:44.807Z,3.10
2022-09-02T21:44:54.456Z,4.45
2022-09-02T21:48:03.942Z,5.38
2022-09-02T21:51:06.917Z,4.38
2022-09-02T21:54:19.947Z,4.25
2022-09-02T21:57:04.044Z,5.78
2022-09-02T22:00:03.151Z,4.07
2022-09-02T22:03:10.871Z,2.90
2022-09-02T22:06:19.797Z,2.75
2022-09-02T22:09:38.716Z,4.07
2022-09-02T22:12:29.331Z,5.43
2022-09-02T22:15:19.742Z,3.95
2022-09-02T22:18:28.698Z,3.95
2022-09-02T22:21:28.683Z,4.63
2022-09-02T22:24:16.836Z,5.20
2022-09-02T22:27:04.046Z,7.47
2022-09-02T22:30:20.094Z,6.80
2022-09-02T22:33:14.073Z,4.95
2022-09-02T22:36:24.675Z,4.95
2022-09-02T22:39:20.332Z,3.70
2022-09-02T22:42:13.838Z,7.15
2022-09-02T22:45:36.746Z,4.53
2022-09-02T22:49:02.586Z,6.15
2022-09-02T22:52:08.092Z,5.38
2022-09-02T22:54:56.783Z,8.77
2022-09-02T22:58:03.722Z,8.43
2022-09-02T23:01:02.426Z,9.88
2022-09-02T23:04:03.740Z,9.40
2022-09-02T23:06:50.845Z,12.75
2022-09-02T23:09:34.182Z,11.43
2022-09-02T23:12:31.758Z,14.27
2022-09-02T23:15:23.154Z,15.75
2022-09-02T23:18:42.142Z,15.70
2022-09-02T23:21:30.295Z,12.13
2022-09-02T23:24:37.340Z,12.57
2022-09-02T23:31:05.914Z,12.35
2022-09-02T23:34:15.489Z,10.85
2022-09-02T23:37:45.564Z,12.45
2022-09-02T23:40:41.952Z,12.57
2022-09-02T23:43:22.887Z,12.73
2022-09-02T23:46:21.127Z,12.18
2022-09-02T23:49:38.987Z,12.63
2022-09-02T23:53:04.310Z,12.93
2022-09-02T23:56:15.848Z,10.32
2022-09-02T23:59:17.783Z,13.07
